Time;durP1;ratioP1;P1;durP2;ratioP2;P2;SDS_P1;SDS_P2;PMS_P1;PMS_P2;Temp;Humidity;BMP_temperature;BMP_pressure;BME280_temperature;BME280_humidity;BME280_pressure;Samples;Min_cycle;Max_cycle;Signal;HPM_P1;HPM_P2
2021/07/28 00:00:21;;;;;;;;;;;16.00;99.90;;;;;;5097463;28;19916;-78
2021/07/28 00:02:47;;;;;;;14.75;5.97;;;16.20;99.90;;;;;;5096802;28;19904;-78
2021/07/28 00:05:13;;;;;;;18.75;8.05;;;15.70;99.90;;;;;;5097270;28;20012;-78
2021/07/28 00:07:39;;;;;;;17.10;5.68;;;15.60;99.90;;;;;;5097127;28;20097;-77
2021/07/28 00:10:05;;;;;;;18.98;6.60;;;15.70;99.90;;;;;;5096646;28;20024;-77
2021/07/28 00:12:31;;;;;;;16.42;5.82;;;15.60;99.90;;;;;;5096648;28;20059;-76
2021/07/28 00:14:57;;;;;;;;;;;15.60;99.90;;;;;;5078636;28;20069;-78
2021/07/28 00:17:23;;;;;;;11.48;5.57;;;15.50;99.90;;;;;;5096557;28;19943;-78
2021/07/28 00:19:53;;;;;;;14.85;6.47;;;15.40;99.90;;;;;;5096649;28;20032;-79
2021/07/28 00:25:20;;;;;;;18.13;6.53;;;15.20;99.90;;;;;;5034066;28;20225;-78
2021/07/28 00:27:46;;;;;;;;;;;15.20;99.90;;;;;;5083550;28;20440;-78
2021/07/28 00:30:12;;;;;;;17.25;6.13;;;15.20;99.90;;;;;;5096369;28;19998;-77
2021/07/28 00:32:37;;;;;;;15.68;5.78;;;15.20;99.90;;;;;;5096273;28;20047;-77
2021/07/28 00:35:04;;;;;;;11.80;5.40;;;15.20;99.90;;;;;;5096251;28;20028;-78
2021/07/28 00:37:29;;;;;;;15.20;5.70;;;15.40;99.90;;;;;;5096472;28;20020;-78
2021/07/28 00:39:55;;;;;;;;;;;15.50;99.90;;;;;;5096550;28;20031;-77
2021/07/28 00:42:21;;;;;;;19.45;6.45;;;15.50;99.90;;;;;;5096096;28;19904;-77
2021/07/28 00:44:46;;;;;;;16.55;6.25;;;15.30;99.90;;;;;;5096476;28;20034;-78
2021/07/28 00:47:14;;;;;;;18.95;5.57;;;15.20;99.90;;;;;;5096297;28;20514;-79
2021/07/28 00:49:41;;;;;;;11.45;5.82;;;15.20;99.90;;;;;;5077757;28;20024;-79
2021/07/28 00:52:07;;;;;;;14.88;5.85;;;15.20;99.90;;;;;;5078037;28;20035;-78
2021/07/28 00:54:33;;;;;;;17.65;6.03;;;15.10;99.90;;;;;;5095303;28;20416;-77
2021/07/28 00:56:59;;;;;;;;;;;15.00;99.90;;;;;;5096211;28;20024;-78
2021/07/28 00:59:26;;;;;;;16.70;6.15;;;14.90;99.90;;;;;;5077561;28;19904;-77
2021/07/28 01:01:54;;;;;;;18.88;9.10;;;14.90;99.90;;;;;;5095776;28;20024;-77
2021/07/28 01:04:20;;;;;;;13.18;5.57;;;14.80;99.90;;;;;;5077467;28;20369;-77
2021/07/28 01:06:46;;;;;;;;;;;14.90;99.90;;;;;;5095995;28;20043;-77
2021/07/28 01:09:12;;;;;;;16.10;6.25;;;14.90;99.90;;;;;;5095892;28;19986;-77
2021/07/28 01:11:38;;;;;;;15.73;6.18;;;14.90;99.90;;;;;;5095546;28;20055;-77
2021/07/28 01:14:05;;;;;;;;;;;14.90;99.90;;;;;;5095639;28;20161;-77
2021/07/28 01:16:36;;;;;;;20.90;6.93;;;14.80;99.90;;;;;;5095883;28;19910;-77
2021/07/28 01:19:07;;;;;;;14.93;6.00;;;14.80;99.90;;;;;;5077040;28;20471;-77
2021/07/28 01:21:33;;;;;;;18.83;6.22;;;14.80;99.90;;;;;;5095358;28;20403;-79
2021/07/28 01:24:00;;;;;;;16.60;6.32;;;14.60;99.90;;;;;;5095230;28;20058;-77
2021/07/28 01:26:28;;;;;;;16.88;6.10;;;14.60;99.90;;;;;;5095199;28;20427;-76
2021/07/28 01:28:54;;;;;;;18.35;6.25;;;14.60;99.90;;;;;;5095315;28;20488;-77
2021/07/28 01:31:22;;;;;;;;;;;14.70;99.90;;;;;;5095466;28;20031;-77
2021/07/28 01:33:48;;;;;;;15.52;6.10;;;14.70;99.90;;;;;;5095376;28;19953;-78
2021/07/28 01:36:17;;;;;;;14.55;5.40;;;14.60;99.90;;;;;;5076861;28;20035;-78
2021/07/28 01:38:43;;;;;;;14.75;6.35;;;14.60;99.90;;;;;;5094983;28;20009;-78
2021/07/28 01:41:09;;;;;;;;;;;14.70;99.90;;;;;;5095570;28;20028;-77
2021/07/28 01:43:36;;;;;;;17.30;6.38;;;14.80;99.90;;;;;;5094885;28;19915;-78
2021/07/28 01:46:03;;;;;;;14.50;6.57;;;14.80;99.90;;;;;;5094812;28;20028;-79
2021/07/28 01:48:29;;;;;;;11.73;5.50;;;14.80;99.90;;;;;;5076653;28;20062;-77
2021/07/28 01:50:55;;;;;;;12.27;5.57;;;14.90;99.90;;;;;;5094791;28;20024;-78
2021/07/28 01:53:22;;;;;;;;;;;15.00;99.90;;;;;;5095238;28;20024;-78
2021/07/28 01:55:48;;;;;;;14.40;5.47;;;15.10;99.90;;;;;;5094681;28;19990;-79
2021/07/28 01:58:14;;;;;;;13.52;5.15;;;15.20;99.90;;;;;;5094580;28;20488;-78
2021/07/28 02:00:41;;;;;;;18.38;6.13;;;15.30;99.90;;;;;;5076319;28;20387;-79
2021/07/28 02:03:07;;;;;;;17.48;5.82;;;15.30;99.90;;;;;;5094496;28;20060;-78
2021/07/28 02:05:33;;;;;;;;;;;15.10;99.90;;;;;;5094438;28;20052;-78
2021/07/28 02:08:04;;;;;;;15.50;5.53;;;15.10;99.90;;;;;;5075792;28;19904;-78
2021/07/28 02:10:37;;;;;;;12.75;5.65;;;15.10;99.90;;;;;;5094356;28;20082;-78
2021/07/28 02:13:03;;;;;;;17.92;6.03;;;15.10;99.90;;;;;;5094677;28;20020;-78
2021/07/28 02:15:32;;;;;;;12.88;5.70;;;14.80;99.90;;;;;;5094090;28;20042;-77
2021/07/28 02:17:58;;;;;;;15.05;5.80;;;14.70;99.90;;;;;;5094183;28;20024;-78
2021/07/28 02:20:26;;;;;;;15.32;5.70;;;14.70;99.90;;;;;;5094334;28;20445;-77
2021/07/28 02:22:52;;;;;;;14.07;5.70;;;14.80;99.90;;;;;;5094259;28;20047;-77
2021/07/28 02:25:18;;;;;;;11.95;5.53;;;14.90;99.90;;;;;;5094003;28;20107;-77
2021/07/28 02:27:44;;;;;;;;;;;15.00;99.90;;;;;;5094464;28;20024;-78
2021/07/28 02:30:13;;;;;;;15.02;5.25;;;15.10;99.90;;;;;;5093909;28;19931;-77
2021/07/28 02:32:39;;;;;;;12.90;6.30;;;15.00;99.90;;;;;;5093928;28;20016;-78
2021/07/28 02:35:06;;;;;;;11.98;5.10;;;14.90;99.90;;;;;;5093878;28;20016;-78
2021/07/28 02:37:33;;;;;;;15.23;5.80;;;14.90;99.90;;;;;;5094269;28;20016;-77
2021/07/28 02:39:59;;;;;;;11.70;5.63;;;14.90;99.90;;;;;;5093817;28;20488;-78
2021/07/28 02:42:24;;;;;;;;;;;14.90;99.90;;;;;;5076083;28;20035;-79
2021/07/28 02:44:50;;;;;;;18.92;5.78;;;14.80;99.90;;;;;;5093785;28;19904;-78
2021/07/28 02:47:16;;;;;;;14.63;5.80;;;14.70;99.90;;;;;;5093663;28;20039;-78
2021/07/28 02:49:42;;;;;;;;;;;14.60;99.90;;;;;;5094531;28;20030;-78
2021/07/28 02:52:07;;;;;;;14.70;5.88;;;14.60;99.90;;;;;;5075246;28;19991;-77
2021/07/28 02:54:33;;;;;;;;;;;14.60;99.90;;;;;;5094078;28;20017;-78
2021/07/28 02:56:59;;;;;;;12.73;5.63;;;14.70;99.90;;;;;;5093604;28;19904;-77
2021/07/28 02:59:24;;;;;;;12.32;5.25;;;14.80;99.90;;;;;;5093590;28;20023;-79
2021/07/28 03:01:52;;;;;;;;;;;14.90;99.90;;;;;;5094198;28;20052;-77
2021/07/28 03:04:18;;;;;;;18.48;7.45;;;14.80;99.90;;;;;;5093550;28;20351;-78
2021/07/28 03:06:45;;;;;;;20.63;6.35;;;14.60;99.90;;;;;;5093423;28;20031;-78
2021/07/28 03:09:11;;;;;;;20.88;7.10;;;14.50;99.90;;;;;;5093386;28;20016;-78
2021/07/28 03:11:36;;;;;;;;;;;14.50;99.90;;;;;;5093920;28;20028;-77
2021/07/28 03:14:02;;;;;;;13.45;5.97;;;14.50;99.90;;;;;;5075070;28;19958;-78
2021/07/28 03:16:28;;;;;;;13.38;5.90;;;14.50;99.90;;;;;;5093474;28;20024;-78
2021/07/28 03:18:54;;;;;;;16.83;7.55;;;14.40;99.90;;;;;;5092944;28;20098;-78
2021/07/28 03:21:19;;;;;;;17.05;7.80;;;14.20;99.90;;;;;;5093230;28;20022;-78
2021/07/28 03:23:45;;;;;;;15.30;7.90;;;14.20;99.90;;;;;;5093129;28;20093;-78
2021/07/28 03:26:11;;;;;;;20.42;7.55;;;14.20;99.90;;;;;;5075177;28;20028;-78
2021/07/28 03:28:37;;;;;;;15.25;6.32;;;14.40;99.90;;;;;;5093313;28;20103;-77
2021/07/28 03:31:03;;;;;;;23.85;6.95;;;14.30;99.90;;;;;;5093076;28;20020;-78
2021/07/28 03:33:28;;;;;;;17.27;7.63;;;14.40;99.90;;;;;;5093478;28;20024;-77
2021/07/28 03:35:54;;;;;;;13.90;6.28;;;14.30;99.90;;;;;;5093155;28;20059;-78
2021/07/28 03:38:20;;;;;;;17.98;6.35;;;14.50;99.90;;;;;;5093172;28;20024;-78
2021/07/28 03:40:46;;;;;;;15.73;5.97;;;14.60;99.90;;;;;;5074917;28;20046;-78
2021/07/28 03:43:13;;;;;;;;;;;14.60;99.90;;;;;;5093652;28;20028;-78
2021/07/28 03:45:39;;;;;;;14.93;6.10;;;14.70;99.90;;;;;;5093295;28;19904;-78
2021/07/28 03:48:04;;;;;;;;;;;14.70;99.90;;;;;;5093411;28;20062;-77
2021/07/28 03:50:30;;;;;;;9.38;5.20;;;14.70;99.90;;;;;;5092914;28;20386;-76
2021/07/28 03:52:57;;;;;;;16.00;6.30;;;14.70;99.90;;;;;;5092954;28;20025;-78
2021/07/28 03:55:23;;;;;;;11.75;5.85;;;15.00;99.90;;;;;;5093146;28;20020;-79
2021/07/28 03:57:49;;;;;;;13.70;6.20;;;15.20;99.90;;;;;;5093095;28;20013;-78
2021/07/28 04:00:15;;;;;;;;;;;15.20;99.90;;;;;;5093347;28;20031;-79
2021/07/28 04:02:41;;;;;;;15.75;6.50;;;15.10;99.90;;;;;;5092904;28;19991;-78
2021/07/28 04:05:07;;;;;;;14.70;5.88;;;15.00;99.90;;;;;;5092851;28;20044;-78
2021/07/28 04:07:33;;;;;;;14.52;5.97;;;15.10;99.90;;;;;;5093173;28;20024;-77
2021/07/28 04:09:58;;;;;;;;;;;15.20;99.90;;;;;;5093202;28;20032;-78
2021/07/28 04:12:24;;;;;;;17.17;6.38;;;15.20;99.90;;;;;;5092829;28;19943;-78
2021/07/28 04:14:50;;;;;;;14.70;6.20;;;15.20;99.90;;;;;;5092528;28;20052;-77
2021/07/28 04:17:16;;;;;;;;;;;15.10;99.90;;;;;;5093318;28;20602;-78
2021/07/28 04:19:48;;;;;;;14.00;5.80;;;15.20;99.90;;;;;;5092848;28;20292;-78
2021/07/28 04:22:15;;;;;;;14.07;5.80;;;15.10;99.90;;;;;;5074343;28;20024;-78
2021/07/28 04:24:40;;;;;;;13.85;6.15;;;15.30;99.90;;;;;;5092598;28;20031;-78
2021/07/28 04:27:06;;;;;;;;;;;15.20;99.90;;;;;;5093122;28;20020;-78
2021/07/28 04:29:32;;;;;;;14.40;6.15;;;15.10;99.90;;;;;;5093514;28;19904;-77
2021/07/28 04:31:57;;;;;;;;;;;15.20;99.90;;;;;;5078554;28;20507;-78
2021/07/28 04:34:23;;;;;;;14.52;5.90;;;15.40;99.90;;;;;;5096273;28;19936;-76
2021/07/28 04:36:48;;;;;;;;;;;15.60;99.90;;;;;;5096638;28;20023;-77
2021/07/28 04:39:14;;;;;;;;;;;15.70;99.90;;;;;;5096791;28;19908;-77
2021/07/28 04:41:40;;;;;;;17.10;6.50;;;15.70;99.90;;;;;;5096169;28;19911;-77
2021/07/28 04:44:05;;;;;;;22.20;6.93;;;15.70;99.90;;;;;;5096131;28;20031;-77
2021/07/28 04:46:31;;;;;;;13.15;6.72;;;15.40;99.90;;;;;;5096126;28;20028;-77
2021/07/28 04:48:57;;;;;;;;;;;15.50;99.90;;;;;;5096440;28;20047;-78
2021/07/28 04:51:23;;;;;;;14.00;6.50;;;15.50;99.90;;;;;;5096251;28;19995;-77
2021/07/28 04:53:48;;;;;;;;;;;15.60;99.90;;;;;;5096444;28;20433;-78
2021/07/28 04:56:14;;;;;;;21.77;8.70;;;15.70;99.90;;;;;;5095845;28;19957;-77
2021/07/28 04:58:40;;;;;;;17.52;6.22;;;15.50;99.90;;;;;;5095812;28;20031;-77
2021/07/28 05:01:05;;;;;;;15.68;6.60;;;15.50;99.90;;;;;;5095950;28;20024;-78
2021/07/28 05:03:31;;;;;;;;;;;15.60;99.90;;;;;;5096135;28;20028;-78
2021/07/28 05:05:57;;;;;;;12.95;5.88;;;15.50;99.90;;;;;;5077533;28;19904;-78
2021/07/28 05:08:22;;;;;;;12.02;6.22;;;15.80;99.90;;;;;;5095621;28;20047;-78
2021/07/28 05:10:51;;;;;;;;;;;15.50;99.90;;;;;;5077768;28;20400;-78
2021/07/28 05:13:17;;;;;;;20.13;6.68;;;15.40;99.90;;;;;;5095530;28;19904;-79
2021/07/28 05:15:42;;;;;;;;;;;15.40;99.90;;;;;;5095620;28;20040;-78
2021/07/28 05:18:08;;;;;;;15.93;5.82;;;15.40;99.90;;;;;;5095451;28;19908;-77
2021/07/28 05:20:34;;;;;;;21.80;7.43;;;15.40;99.90;;;;;;5095418;28;20024;-78
2021/07/28 05:23:00;;;;;;;17.45;7.03;;;15.50;99.90;;;;;;5095269;28;20027;-79
2021/07/28 05:25:28;;;;;;;;;;;15.70;99.90;;;;;;5095691;28;20039;-77
2021/07/28 05:27:54;;;;;;;17.48;7.10;;;15.60;99.90;;;;;;5095222;28;19961;-79
2021/07/28 05:30:20;;;;;;;17.42;6.57;;;15.70;99.90;;;;;;5095102;28;20480;-78
2021/07/28 05:32:46;;;;;;;15.75;6.35;;;15.80;99.90;;;;;;5095110;28;20582;-77
2021/07/28 05:35:12;;;;;;;;;;;15.90;99.90;;;;;;5095493;28;20022;-78
2021/07/28 05:37:37;;;;;;;13.45;6.18;;;15.90;99.90;;;;;;5095483;28;19991;-78
2021/07/28 05:40:03;;;;;;;;;;;16.00;99.90;;;;;;5077089;28;20392;-78
2021/07/28 05:42:29;;;;;;;;;;;15.80;99.90;;;;;;5095508;28;19904;-77
2021/07/28 05:44:55;;;;;;;14.85;6.80;;;15.90;99.90;;;;;;5095067;28;19904;-77
2021/07/28 05:47:20;;;;;;;19.33;7.03;;;16.00;99.90;;;;;;5094927;28;20016;-78
2021/07/28 05:49:46;;;;;;;;;;;16.10;99.90;;;;;;5095180;28;20028;-78
2021/07/28 05:52:12;;;;;;;13.00;6.65;;;16.10;99.90;;;;;;5094766;28;19935;-77
2021/07/28 05:54:37;;;;;;;;;;;16.20;99.90;;;;;;5095260;28;20020;-78
2021/07/28 05:57:03;;;;;;;16.70;6.90;;;16.10;99.90;;;;;;5094801;28;19911;-78
2021/07/28 05:59:29;;;;;;;;;;;16.20;99.90;;;;;;5095015;28;20046;-77
2021/07/28 06:01:54;;;;;;;17.98;7.32;;;16.20;99.90;;;;;;5094617;28;20364;-77
2021/07/28 06:04:20;;;;;;;;;;;16.30;99.90;;;;;;5094943;28;20016;-76
2021/07/28 06:06:46;;;;;;;20.88;7.53;;;16.20;99.90;;;;;;5094638;28;20372;-76
2021/07/28 06:09:11;;;;;;;;;;;16.30;99.90;;;;;;5094839;28;20028;-79
2021/07/28 06:11:37;;;;;;;18.42;7.57;;;16.30;99.90;;;;;;5094335;28;20311;-76
2021/07/28 06:14:03;;;;;;;;;;;16.40;99.90;;;;;;5094935;28;20016;-77
2021/07/28 06:16:28;;;;;;;20.80;6.95;;;16.50;99.90;;;;;;5094077;28;19963;-78
2021/07/28 06:18:54;;;;;;;;;;;16.80;99.90;;;;;;5094813;28;20028;-78
2021/07/28 06:21:20;;;;;;;19.88;8.85;;;16.70;99.90;;;;;;5094537;28;19953;-77
2021/07/28 06:23:46;;;;;;;;;;;16.80;99.90;;;;;;5094635;28;20023;-77
2021/07/28 06:26:11;;;;;;;17.13;7.50;;;16.80;99.90;;;;;;5094222;28;19990;-78
2021/07/28 06:28:37;;;;;;;;;;;16.90;99.90;;;;;;5094476;28;20028;-78
2021/07/28 06:31:03;;;;;;;21.63;12.48;;;16.70;99.90;;;;;;5094160;28;19908;-78
2021/07/28 06:33:28;;;;;;;;;;;16.70;99.90;;;;;;5094403;28;20126;-78
2021/07/28 06:35:54;;;;;;;17.88;8.35;;;16.70;99.90;;;;;;5094040;28;19908;-77
2021/07/28 06:38:20;;;;;;;;;;;16.60;99.90;;;;;;5094314;28;20467;-78
2021/07/28 06:40:46;;;;;;;16.30;8.20;;;16.70;99.90;;;;;;5094139;28;19904;-79
2021/07/28 06:43:13;;;;;;;33.47;19.42;;;16.80;99.90;;;;;;5093942;28;20522;-77
2021/07/28 06:45:39;;;;;;;18.48;7.95;;;17.10;99.90;;;;;;5093682;28;20468;-78
2021/07/28 06:48:06;;;;;;;26.92;17.25;;;17.40;99.90;;;;;;5093705;28;20096;-78
2021/07/28 06:50:31;;;;;;;20.42;9.50;;;17.50;99.90;;;;;;5093785;28;20085;-79
2021/07/28 06:52:58;;;;;;;18.20;9.70;;;17.70;99.90;;;;;;5093275;28;20115;-78
2021/07/28 06:55:24;;;;;;;20.92;11.40;;;17.60;99.90;;;;;;5093627;28;20024;-79
2021/07/28 06:57:49;;;;;;;11.38;6.63;;;17.70;99.90;;;;;;5093554;28;20017;-78
2021/07/28 07:00:15;;;;;;;;;;;17.70;99.90;;;;;;5093958;28;20024;-79
2021/07/28 07:02:41;;;;;;;17.25;7.32;;;17.70;99.90;;;;;;5093469;28;20348;-79
2021/07/28 07:05:08;;;;;;;;;;;17.60;99.90;;;;;;5093867;28;20024;-78
2021/07/28 07:07:34;;;;;;;14.55;8.43;;;17.70;99.90;;;;;;5093452;28;20420;-78
2021/07/28 07:10:00;;;;;;;17.17;6.82;;;17.70;99.90;;;;;;5093323;28;20032;-79
2021/07/28 07:12:26;;;;;;;29.98;18.52;;;17.80;99.90;;;;;;5093367;28;20346;-78
2021/07/28 07:14:52;;;;;;;22.10;14.73;;;17.90;99.90;;;;;;5093160;28;20098;-79
2021/07/28 07:17:18;;;;;;;18.50;8.48;;;17.70;99.90;;;;;;5093320;28;20570;-78
2021/07/28 07:19:44;;;;;;;38.35;26.25;;;17.80;99.90;;;;;;5093313;28;20055;-79
2021/07/28 07:22:09;;;;;;;;;;;17.60;99.90;;;;;;5093653;28;20395;-78
2021/07/28 07:24:36;;;;;;;20.48;10.60;;;17.60;99.90;;;;;;5093245;28;20287;-78
2021/07/28 07:27:02;;;;;;;13.35;6.32;;;17.50;99.90;;;;;;5093424;28;20023;-77
2021/07/28 07:29:28;;;;;;;13.27;6.88;;;17.70;99.90;;;;;;5093204;28;20095;-78
2021/07/28 07:31:54;;;;;;;14.13;7.07;;;17.70;99.90;;;;;;5093044;28;20116;-78
2021/07/28 07:34:20;;;;;;;18.15;7.03;;;17.90;99.90;;;;;;5093322;28;20020;-78
2021/07/28 07:36:46;;;;;;;17.10;9.98;;;17.70;99.90;;;;;;5093125;28;20020;-78
2021/07/28 07:39:12;;;;;;;16.35;9.15;;;17.70;99.90;;;;;;5093129;28;20078;-78
2021/07/28 07:41:38;;;;;;;20.08;13.60;;;18.00;99.90;;;;;;5093213;28;20042;-78
2021/07/28 07:44:05;;;;;;;27.83;22.88;;;18.90;99.90;;;;;;5093159;28;20024;-78
2021/07/28 07:46:30;;;;;;;85.18;77.28;;;20.10;99.90;;;;;;5093010;28;20024;-78
2021/07/28 07:48:56;;;;;;;15.65;13.15;;;20.80;99.90;;;;;;5093522;28;20099;-79
2021/07/28 07:51:30;;;;;;;74.90;67.80;;;20.90;99.90;;;;;;5092896;28;20499;-79
2021/07/28 07:53:56;;;;;;;39.10;35.00;;;20.70;99.90;;;;;;5093233;28;20051;-78
2021/07/28 07:56:22;;;;;;;16.63;13.10;;;21.00;99.90;;;;;;5093066;28;20028;-78
2021/07/28 07:58:48;;;;;;;17.45;13.45;;;21.50;99.90;;;;;;5092882;28;20511;-79
2021/07/28 08:01:13;;;;;;;37.25;33.25;;;22.30;99.90;;;;;;5092865;28;20050;-79
2021/07/28 08:03:41;;;;;;;23.63;17.95;;;21.30;99.90;;;;;;5092858;28;20070;-77
2021/07/28 08:06:08;;;;;;;17.25;11.68;;;21.90;99.90;;;;;;5096196;28;20028;-79
2021/07/28 08:08:35;;;;;;;128.88;121.72;;;22.30;99.90;;;;;;5096661;28;20020;-80
2021/07/28 08:11:11;;;;;;;55.40;51.53;;;22.00;99.90;;;;;;5096639;28;20085;-79
2021/07/28 08:13:37;;;;;;;21.88;18.60;;;22.10;99.40;;;;;;5096834;28;20090;-78
2021/07/28 08:16:24;;;;;;;62.28;47.50;;;22.50;99.10;;;;;;5074653;28;20084;-77
2021/07/28 08:18:50;;;;;;;67.65;60.47;;;21.90;99.10;;;;;;5076259;28;20032;-78
2021/07/28 08:21:17;;;;;;;32.22;29.45;;;21.40;99.90;;;;;;5076299;28;20020;-78
2021/07/28 08:23:45;;;;;;;12.45;7.63;;;21.30;99.30;;;;;;5076146;28;20089;-79
2021/07/28 08:26:14;;;;;;;43.75;39.05;;;22.10;99.20;;;;;;5076128;28;20032;-78
2021/07/28 08:28:42;;;;;;;12.50;10.75;;;21.90;98.60;;;;;;5076176;28;20025;-78
2021/07/28 08:31:08;;;;;;;114.38;101.95;;;22.10;98.80;;;;;;5076441;28;20537;-78
2021/07/28 08:33:34;;;;;;;30.67;27.27;;;21.70;97.40;;;;;;5076034;28;20020;-79
2021/07/28 08:36:03;;;;;;;167.35;150.65;;;21.30;98.20;;;;;;5075998;28;20388;-79
2021/07/28 08:38:29;;;;;;;53.42;47.95;;;21.50;98.00;;;;;;5075915;28;20366;-78
2021/07/28 08:41:01;;;;;;;72.00;63.80;;;21.40;98.80;;;;;;5075874;28;20028;-78
2021/07/28 08:43:38;;;;;;;19.58;16.38;;;21.70;98.00;;;;;;5076132;28;20366;-79
2021/07/28 08:46:07;;;;;;;61.63;54.65;;;22.50;96.90;;;;;;5076254;28;20033;-78
2021/07/28 08:48:34;;;;;;;10.38;8.35;;;22.30;96.30;;;;;;5075790;28;20103;-79
2021/07/28 08:51:01;;;;;;;27.02;24.10;;;22.00;96.70;;;;;;5075620;28;20033;-78
2021/07/28 08:53:27;;;;;;;19.55;16.02;;;22.70;95.90;;;;;;5075702;28;20013;-79
2021/07/28 08:55:55;;;;;;;16.40;13.45;;;22.60;96.50;;;;;;5075735;28;20020;-80
2021/07/28 08:58:23;;;;;;;23.35;21.15;;;22.70;95.70;;;;;;5075719;28;20024;-79
2021/07/28 09:00:50;;;;;;;31.05;27.80;;;23.00;95.10;;;;;;5076115;28;20333;-80
2021/07/28 09:03:16;;;;;;;107.43;96.35;;;23.00;94.60;;;;;;5075531;28;20025;-78
2021/07/28 09:05:55;;;;;;;16.52;14.93;;;22.90;93.80;;;;;;5074237;28;20389;-78
2021/07/28 09:08:28;;;;;;;52.58;48.17;;;23.90;93.60;;;;;;5075523;28;20029;-78
2021/07/28 09:11:03;;;;;;;66.25;59.33;;;23.90;92.90;;;;;;5075375;28;20024;-78
2021/07/28 09:13:39;;;;;;;54.55;43.85;;;24.20;91.40;;;;;;5075707;28;20539;-79
2021/07/28 09:16:15;;;;;;;14.73;11.88;;;23.80;90.90;;;;;;5090827;28;20070;-78
2021/07/28 09:18:42;;;;;;;56.78;52.05;;;24.50;90.90;;;;;;5095589;28;20564;-79
2021/07/28 09:21:19;;;;;;;134.43;120.65;;;24.20;90.60;;;;;;5095363;28;20507;-79
2021/07/28 09:23:49;;;;;;;30.58;27.63;;;23.40;90.20;;;;;;5095626;28;20032;-78
2021/07/28 09:26:33;;;;;;;77.63;69.88;;;23.50;90.80;;;;;;5095373;28;20089;-78
2021/07/28 09:29:04;;;;;;;42.60;37.22;;;23.50;89.00;;;;;;5095326;28;20024;-78
2021/07/28 09:31:50;;;;;;;17.13;14.70;;;23.00;90.90;;;;;;5095120;28;20541;-78
2021/07/28 09:34:23;;;;;;;32.05;29.00;;;23.20;91.30;;;;;;5095361;28;20353;-78
2021/07/28 09:36:55;;;;;;;43.97;38.65;;;23.40;90.90;;;;;;5076715;28;20020;-79
2021/07/28 09:39:32;;;;;;;13.15;11.40;;;24.10;86.90;;;;;;5095534;28;20016;-80
2021/07/28 09:42:09;;;;;;;50.10;45.08;;;23.70;83.50;;;;;;5095355;28;20043;-78
2021/07/28 09:44:35;;;;;;;68.55;57.38;;;24.30;86.80;;;;;;5095048;28;20020;-78
2021/07/28 09:47:03;;;;;;;28.63;24.75;;;24.30;83.50;;;;;;5094895;28;20028;-78
2021/07/28 09:49:29;;;;;;;70.70;63.95;;;24.40;81.60;;;;;;5094818;28;20078;-80
2021/07/28 09:51:55;;;;;;;62.88;56.60;;;24.20;81.20;;;;;;5094680;28;20089;-79
2021/07/28 09:54:25;;;;;;;22.70;20.48;;;24.70;82.20;;;;;;5094844;28;20016;-78
2021/07/28 09:56:54;;;;;;;26.85;22.40;;;25.20;79.20;;;;;;5094830;28;20077;-77
2021/07/28 09:59:20;;;;;;;52.53;47.53;;;24.90;78.40;;;;;;5094669;28;20020;-80
2021/07/28 10:01:46;;;;;;;111.68;99.68;;;25.30;77.00;;;;;;5095089;28;20069;-77
2021/07/28 10:04:14;;;;;;;90.93;80.78;;;25.00;77.20;;;;;;5094562;28;20024;-78
2021/07/28 10:06:46;;;;;;;54.28;46.55;;;24.80;77.40;;;;;;5094612;28;20393;-78
2021/07/28 10:09:17;;;;;;;35.25;32.15;;;25.10;77.00;;;;;;5094489;28;20024;-79
2021/07/28 10:11:48;;;;;;;91.60;82.32;;;26.50;71.90;;;;;;5094346;28;20028;-77
2021/07/28 10:14:21;;;;;;;89.88;80.95;;;26.70;71.10;;;;;;5094041;28;20032;-79
2021/07/28 10:16:47;;;;;;;42.83;38.40;;;26.70;69.70;;;;;;5094469;28;20101;-78
2021/07/28 10:19:15;;;;;;;89.95;80.57;;;27.10;68.20;;;;;;5094288;28;20016;-80
2021/07/28 10:21:41;;;;;;;60.20;54.70;;;27.60;67.30;;;;;;5094401;28;20433;-78
2021/07/28 10:24:09;;;;;;;67.10;60.80;;;27.10;66.70;;;;;;5094110;28;20016;-79
2021/07/28 10:26:48;;;;;;;44.22;39.97;;;26.60;69.70;;;;;;5093972;28;20130;-78
2021/07/28 10:29:18;;;;;;;22.50;18.23;;;26.20;68.50;;;;;;5094139;28;20130;-78
2021/07/28 10:31:44;;;;;;;41.63;34.42;;;24.80;72.90;;;;;;5094164;28;20028;-78
2021/07/28 10:34:24;;;;;;;30.35;27.27;;;24.50;78.10;;;;;;5094061;28;20085;-79
2021/07/28 10:36:52;;;;;;;10.55;7.00;;;27.00;69.00;;;;;;5094532;28;20099;-78
2021/07/28 10:39:47;;;;;;;85.93;78.35;;;27.00;69.30;;;;;;5093962;28;20108;-80
2021/07/28 10:42:39;;;;;;;36.90;33.08;;;26.40;70.80;;;;;;5093956;28;20026;-79
2021/07/28 10:45:06;;;;;;;65.22;59.17;;;29.40;60.90;;;;;;5093740;28;20408;-81
2021/07/28 10:47:45;;;;;;;51.05;45.88;;;26.40;63.50;;;;;;5094018;28;20024;-79
2021/07/28 10:50:26;;;;;;;88.05;79.93;;;27.20;62.50;;;;;;5093635;28;20523;-79
2021/07/28 10:52:55;;;;;;;62.20;46.42;;;28.20;56.80;;;;;;5075592;28;20399;-79
2021/07/28 10:55:22;;;;;;;57.95;52.05;;;28.20;55.10;;;;;;5093723;28;20464;-81
2021/07/28 10:57:48;;;;;;;41.85;37.80;;;28.10;57.30;;;;;;5093658;28;20032;-80
2021/07/28 11:00:37;;;;;;;14.52;12.98;;;28.90;56.40;;;;;;5093632;28;20072;-80
2021/07/28 11:03:05;;;;;;;68.85;62.10;;;28.90;56.30;;;;;;5093510;28;20020;-79
2021/07/28 11:05:36;;;;;;;62.88;56.22;;;29.10;54.60;;;;;;5093762;28;20500;-79
2021/07/28 11:08:02;;;;;;;65.13;57.47;;;28.90;55.30;;;;;;5093629;28;20024;-80
2021/07/28 11:10:38;;;;;;;59.88;53.80;;;27.90;56.00;;;;;;5093385;28;20046;-80
2021/07/28 11:13:09;;;;;;;76.03;67.03;;;26.70;58.40;;;;;;5093743;28;20023;-80
2021/07/28 11:15:35;;;;;;;43.60;31.67;;;28.10;52.90;;;;;;5093360;28;20040;-80
2021/07/28 11:18:02;;;;;;;53.60;48.30;;;29.60;51.80;;;;;;5093681;28;20078;-81
2021/07/28 11:20:35;;;;;;;38.42;34.60;;;28.30;52.70;;;;;;5093348;28;20031;-79
2021/07/28 11:23:28;;;;;;;26.70;21.42;;;26.00;57.60;;;;;;5075060;28;20028;-80
2021/07/28 11:25:58;;;;;;;32.40;29.23;;;26.60;60.00;;;;;;5093541;28;20128;-80
2021/07/28 11:28:25;;;;;;;32.42;28.73;;;28.00;55.20;;;;;;5093827;28;20388;-79
2021/07/28 11:30:59;;;;;;;31.30;28.00;;;27.70;56.80;;;;;;5093122;28;20024;-79
2021/07/28 11:33:26;;;;;;;152.40;123.00;;;25.70;61.00;;;;;;5093174;28;20095;-79
2021/07/28 11:35:53;;;;;;;9.07;5.13;;;25.20;61.00;;;;;;5093168;28;20028;-79
2021/07/28 11:38:24;;;;;;;20.10;14.43;;;24.60;66.40;;;;;;5093986;28;20012;-79
2021/07/28 11:40:58;;;;;;;24.20;17.83;;;24.10;68.30;;;;;;5097517;28;20035;-78
2021/07/28 11:43:26;;;;;;;134.98;119.95;;;26.10;63.80;;;;;;5079110;28;20024;-79
2021/07/28 11:45:53;;;;;;;79.57;65.63;;;26.90;58.50;;;;;;5097188;28;20441;-79
2021/07/28 11:48:34;;;;;;;51.00;44.38;;;27.40;57.50;;;;;;5097208;28;20047;-78
2021/07/28 11:51:04;;;;;;;32.42;29.27;;;26.10;58.60;;;;;;5097066;28;20088;-78
2021/07/28 11:53:31;;;;;;;70.50;63.05;;;26.20;59.30;;;;;;5097253;28;20385;-78
2021/07/28 11:56:07;;;;;;;28.17;22.55;;;26.90;57.30;;;;;;5097081;28;20020;-79
2021/07/28 11:58:34;;;;;;;76.15;68.45;;;27.60;55.20;;;;;;5097204;28;20481;-78
2021/07/28 12:01:23;;;;;;;32.15;28.98;;;28.00;54.50;;;;;;5096965;28;20039;-79
2021/07/28 12:04:04;;;;;;;57.70;52.03;;;28.50;52.20;;;;;;5096911;28;20063;-79
2021/07/28 12:06:43;;;;;;;40.97;37.13;;;28.20;51.10;;;;;;5097083;28;20035;-79
2021/07/28 12:09:17;;;;;;;21.05;19.00;;;28.70;51.00;;;;;;5097049;28;20047;-80
2021/07/28 12:12:06;;;;;;;28.25;25.38;;;29.30;50.70;;;;;;5096742;28;20085;-79
2021/07/28 12:14:40;;;;;;;10.20;9.05;;;28.70;48.70;;;;;;5096939;28;20538;-80
2021/07/28 12:17:18;;;;;;;163.00;144.85;;;29.50;49.60;;;;;;5078296;28;20135;-80
2021/07/28 12:19:54;;;;;;;63.38;57.42;;;30.00;48.00;;;;;;5096670;28;20046;-80
2021/07/28 12:22:40;;;;;;;41.50;37.60;;;30.30;48.10;;;;;;5096568;28;20051;-80
2021/07/28 12:25:22;;;;;;;92.68;83.32;;;29.70;49.80;;;;;;5096397;28;20024;-80
2021/07/28 12:27:57;;;;;;;31.15;28.17;;;28.60;49.80;;;;;;5078091;28;20016;-79
2021/07/28 12:30:40;;;;;;;32.40;28.95;;;26.30;54.30;;;;;;5096762;28;20032;-79
2021/07/28 12:33:15;;;;;;;158.73;141.98;;;26.50;58.00;;;;;;5096307;28;20016;-78
2021/07/28 12:35:49;;;;;;;42.35;38.17;;;27.30;54.30;;;;;;5077858;28;20031;-78
2021/07/28 12:38:28;;;;;;;42.80;34.55;;;26.50;55.00;;;;;;5096779;28;20024;-78
2021/07/28 12:40:59;;;;;;;21.23;16.95;;;25.70;57.40;;;;;;5096562;28;20115;-79
2021/07/28 12:43:30;;;;;;;60.95;55.13;;;27.60;55.30;;;;;;5078043;28;20157;-79
2021/07/28 12:45:57;;;;;;;29.77;26.60;;;29.80;51.00;;;;;;5096209;28;20035;-80
2021/07/28 12:48:27;;;;;;;44.67;40.90;;;30.60;48.50;;;;;;5077878;28;20077;-80
2021/07/28 12:50:54;;;;;;;150.05;129.43;;;31.40;47.50;;;;;;5094971;28;20034;-81
2021/07/28 12:53:20;;;;;;;37.15;33.90;;;30.80;47.00;;;;;;5096036;28;20586;-80